Greenville, IN (47124)

2:36 PM EDT on October 24, 2014 (GMT -0400)
Doug and Ginger | Change Station
CLOSE
Current Station
Personal Weather Station
Location: Floyds Knobs, IN
Elevation: 735 ft
Nearby Weather Stations

Elev 735 ft 38.36 °N, 85.92 °W | Updated 13 seconds ago

Partly Cloudy
Partly Cloudy
62.4 °F
Feels Like 62.4 °F
N
2.7
Wind Variable Wind from WSW

Today
High -- | Low -- °F
--% Chance of Precip.
Yesterday
High -- | Low -- °F
Precip. -- in
8:01 AM 6:53 PM
New Moon, 1% visible
Pressure 30.09 in
Visibility 10.0 miles
Clouds Few 3500 ft
Scattered Clouds 13000 ft
Dew Point 48 °F
Humidity 59%
Rainfall 0.00 in
Snow Depth Not available.
UV 4 out of 12
Pollen 1.10 out of 12
Ozone Good
PM2.5 Moderate
Flu Activity Sporadic
METAR KSDF 241756Z 21010G14KT 10SM FEW035 SCT130 18/06 A3009 RMK AO2 SLP188 T01830061 10183 20056 58017

More Conditions Fewer Conditions

Pressure 30.09 in
Visibility 10.0 miles
Clouds Few 3500 ft
Scattered Clouds 13000 ft
Dew Point 48 °F
Humidity 59%
Rainfall 0.00 in
Snow Depth Not available.
UV 4 out of 12
Pollen 1.10 out of 12
Ozone Good
PM2.5 Moderate
Flu Activity Sporadic
METAR KSDF 241756Z 21010G14KT 10SM FEW035 SCT130 18/06 A3009 RMK AO2 SLP188 T01830061 10183 20056 58017

More Conditions Fewer Conditions

10-Day Weather Forecast

Almanac

Astronomy

Oct. 24, 2014 Rise Set
Actual Time 8:01 AM EDT 6:53 PM EDT
Civil Twilight 7:34 AM EDT 7:20 PM EDT
Nautical Twilight 7:03 AM EDT 7:51 PM EDT
Astronomical Twilight 6:33 AM EDT 8:22 PM EDT
Moon 8:39 AM EDT 7:34 PM EDT
Length of Visible Light 11h 45m
Length of Day
10h 51m
Tomorrow will be 2m 18s shorter.
New Moon, 1% of the Moon is Illuminated
Today
New Moon
Oct 30
First Quarter
Nov 6
Full
Nov 14
Last Quarter
Nov 22
New

Today's Extremes

State Highs State Lows

Community

WunderPhotos

Upload Photos

1,764,632 photos uploaded!

WunderBlogs® & News

Nearby

Air Quality

  Air Quality AQ Index Pollutant
Yesterday Good
PM10
Yesterday Good
OZONE
Current Moderate
PM2.5
Current Good
OZONE
Friday Moderate
PM2.5
Friday Good
OZONE
Saturday Moderate
PM2.5
Saturday Good
OZONE
Sunday Moderate
PM2.5
Sunday Good
OZONE
Monday Moderate
PM2.5
Monday Good
OZONE

Snow Depth

Station Depth Elevation
No new snow has been reported.

Earthquake Activity

City Distance Mag. Time & Date
No recent earthquake activity has been reported nearby.
Minimum magnitude displayed is 2.5.

Coastal Water Temperatures

Place Temperature
No Stations Reporting

Nearby Weather Stations